Search for the current weather situation

Metar

Metar
TNCE 140355Z AUTO 07013KT 030V110 //// // ///////// 26/24 Q1015 RE//
Decoded Metar

TAF

TAF
TNCE 140355Z AUTO 07013KT 030V110 //// // ///////// 26/24 Q1015 RE//
Decoded TAF
Top